Time;durP1;ratioP1;P1;durP2;ratioP2;P2;SDS_P1;SDS_P2;PMS_P1;PMS_P2;Temp;Humidity;BMP_temperature;BMP_pressure;BME280_temperature;BME280_humidity;BME280_pressure;Samples;Min_cycle;Max_cycle;Signal;HPM_P1;HPM_P2
2023/04/24 00:01:29;;;;;;;3.35;1.33;;;11.10;99.90;;;;;;4283333;28;10001100;-74
2023/04/24 00:03:58;;;;;;;2.17;1.60;;;11.10;99.90;;;;;;4935850;28;20118;-74
2023/04/24 00:06:32;;;;;;;2.78;1.50;;;11.10;99.90;;;;;;4939964;28;20048;-75
2023/04/24 00:09:00;;;;;;;4.05;1.52;;;11.10;99.90;;;;;;4939095;28;20036;-73
2023/04/24 00:11:26;;;;;;;1.50;1.40;;;11.20;99.90;;;;;;4936283;28;20126;-74
2023/04/24 00:13:51;;;;;;;1.63;1.40;;;11.20;99.90;;;;;;4935337;28;20027;-75
2023/04/24 00:16:17;;;;;;;1.95;1.55;;;11.10;99.90;;;;;;4935019;28;20039;-74
2023/04/24 00:18:42;;;;;;;3.17;1.20;;;11.10;99.90;;;;;;4934746;28;20046;-74
2023/04/24 00:21:08;;;;;;;3.08;1.30;;;11.20;99.90;;;;;;4936964;28;20048;-75
2023/04/24 00:23:33;;;;;;;6.43;1.60;;;11.10;99.90;;;;;;4938655;28;20067;-74
2023/04/24 00:25:59;;;;;;;3.10;1.50;;;11.10;99.90;;;;;;4938454;28;20032;-74
2023/04/24 00:28:25;;;;;;;1.48;1.38;;;11.10;99.90;;;;;;4936651;28;20046;-74
2023/04/24 00:30:50;;;;;;;2.00;1.30;;;11.00;99.90;;;;;;4935148;28;20054;-75
2023/04/24 00:33:16;;;;;;;3.15;1.15;;;11.00;99.90;;;;;;4951621;28;20038;-74
2023/04/24 00:35:41;;;;;;;2.47;1.20;;;11.00;99.90;;;;;;5002913;28;20026;-75
2023/04/24 00:38:07;;;;;;;2.60;1.52;;;10.90;99.90;;;;;;4991733;28;20022;-74
2023/04/24 00:40:33;;;;;;;6.38;1.10;;;10.90;99.90;;;;;;5000380;28;20061;-74
2023/04/24 00:42:58;;;;;;;2.42;1.10;;;10.90;99.90;;;;;;4999857;28;20101;-74
2023/04/24 00:45:24;;;;;;;2.35;1.15;;;10.90;99.90;;;;;;5002005;28;20060;-74
2023/04/24 00:47:51;;;;;;;2.95;1.27;;;10.80;99.90;;;;;;4993063;28;20415;-74
2023/04/24 00:50:19;;;;;;;1.42;1.20;;;10.80;99.90;;;;;;4998778;28;20113;-73
2023/04/24 00:52:44;;;;;;;2.55;1.40;;;10.70;99.90;;;;;;4995486;28;20104;-74
2023/04/24 00:55:10;;;;;;;3.50;1.20;;;10.80;99.90;;;;;;4990709;28;20026;-74
2023/04/24 00:57:37;;;;;;;2.58;1.30;;;10.80;99.90;;;;;;5002253;28;20367;-74
2023/04/24 01:00:05;;;;;;;1.85;1.20;;;10.80;99.90;;;;;;4992362;28;20022;-74
2023/04/24 01:02:34;;;;;;;1.65;1.20;;;10.70;99.90;;;;;;4994035;28;20042;-74
2023/04/24 01:05:00;;;;;;;3.38;1.30;;;10.80;99.90;;;;;;5000271;28;20069;-74
2023/04/24 01:07:26;;;;;;;3.83;1.23;;;10.80;99.90;;;;;;4996931;28;20489;-74
2023/04/24 01:09:52;;;;;;;3.47;1.38;;;10.80;99.90;;;;;;4993851;28;20022;-74
2023/04/24 01:12:19;;;;;;;1.13;1.02;;;10.90;99.90;;;;;;4995787;28;20034;-74
2023/04/24 01:14:45;;;;;;;2.90;1.50;;;10.90;99.90;;;;;;4996555;28;20034;-74
2023/04/24 01:17:11;;;;;;;1.52;1.42;;;10.90;99.90;;;;;;4996449;28;20049;-74
2023/04/24 01:19:38;;;;;;;2.30;1.20;;;10.90;99.90;;;;;;4990127;28;20462;-74
2023/04/24 01:22:12;;;;;;;1.70;1.27;;;10.90;99.90;;;;;;4998658;28;20031;-74
2023/04/24 01:24:38;;;;;;;2.97;1.50;;;10.90;99.90;;;;;;4995687;28;20110;-75
2023/04/24 01:27:04;;;;;;;2.05;1.38;;;10.90;99.90;;;;;;5003627;28;20108;-74
2023/04/24 01:29:29;;;;;;;3.20;1.40;;;10.90;99.90;;;;;;5002186;28;20034;-75
2023/04/24 01:31:55;;;;;;;1.75;1.40;;;11.00;99.90;;;;;;5000436;28;20033;-74
2023/04/24 01:34:21;;;;;;;3.65;1.83;;;10.90;99.90;;;;;;4994908;28;20033;-74
2023/04/24 01:36:47;;;;;;;3.53;1.70;;;10.90;99.90;;;;;;4989437;28;20026;-75
2023/04/24 01:39:13;;;;;;;2.42;1.80;;;10.90;99.90;;;;;;4990758;28;20054;-74
2023/04/24 01:41:39;;;;;;;5.40;1.73;;;10.90;99.90;;;;;;4990440;28;20045;-74
2023/04/24 01:44:04;;;;;;;3.53;2.00;;;10.90;99.90;;;;;;4997993;28;20029;-74
2023/04/24 01:46:31;;;;;;;4.63;2.10;;;10.90;99.90;;;;;;4990978;28;20057;-75
2023/04/24 01:48:59;;;;;;;3.22;1.88;;;11.00;99.90;;;;;;4991892;28;20030;-74
2023/04/24 01:51:25;;;;;;;5.20;2.30;;;10.90;99.90;;;;;;5003194;28;20460;-75
2023/04/24 01:53:51;;;;;;;3.50;2.22;;;11.00;99.90;;;;;;4998719;28;20110;-74
2023/04/24 01:56:17;;;;;;;6.10;2.35;;;10.90;99.90;;;;;;4993886;28;20094;-74
2023/04/24 01:58:43;;;;;;;4.10;2.38;;;11.00;99.90;;;;;;4996972;28;20383;-74
2023/04/24 02:01:09;;;;;;;3.38;2.17;;;11.00;99.90;;;;;;4993659;28;20482;-74
2023/04/24 02:03:34;;;;;;;3.00;2.25;;;11.00;99.90;;;;;;4996082;28;20071;-74
2023/04/24 02:06:00;;;;;;;2.40;2.15;;;10.90;99.90;;;;;;4986151;28;20052;-74
2023/04/24 02:08:25;;;;;;;4.25;1.90;;;10.90;99.90;;;;;;4992075;28;20072;-73
2023/04/24 02:10:51;;;;;;;3.75;2.00;;;10.90;99.90;;;;;;4996027;28;20087;-74
2023/04/24 02:13:17;;;;;;;2.40;2.10;;;10.90;99.90;;;;;;4994228;28;20030;-74
2023/04/24 02:15:42;;;;;;;4.95;2.22;;;10.90;99.90;;;;;;4987395;28;20466;-73
2023/04/24 02:18:08;;;;;;;3.30;2.03;;;10.90;99.90;;;;;;4991447;28;20019;-74
2023/04/24 02:20:35;;;;;;;4.18;2.10;;;10.90;99.90;;;;;;4991787;28;20636;-75
2023/04/24 02:23:01;;;;;;;2.47;1.80;;;10.90;99.90;;;;;;5000603;28;20121;-73
2023/04/24 02:25:26;;;;;;;2.53;1.58;;;10.90;99.90;;;;;;5001465;28;20034;-73
2023/04/24 02:27:52;;;;;;;3.80;1.75;;;10.90;99.90;;;;;;4995142;28;20039;-73
2023/04/24 02:30:17;;;;;;;2.47;1.80;;;10.90;99.90;;;;;;4988694;28;20041;-73
2023/04/24 02:32:43;;;;;;;3.80;1.70;;;10.80;99.90;;;;;;4991030;28;20026;-74
2023/04/24 02:35:09;;;;;;;4.13;1.52;;;10.80;99.90;;;;;;4997741;28;20037;-74
2023/04/24 02:37:36;;;;;;;5.05;1.73;;;10.80;99.90;;;;;;4992376;28;20077;-73
2023/04/24 02:40:01;;;;;;;6.65;1.77;;;10.80;99.90;;;;;;4989055;28;20046;-74
2023/04/24 02:42:27;;;;;;;5.85;1.88;;;10.80;99.90;;;;;;4994693;28;20141;-74
2023/04/24 02:44:52;;;;;;;4.53;1.65;;;10.80;99.90;;;;;;4997630;28;20034;-74
2023/04/24 02:47:18;;;;;;;2.17;1.70;;;10.80;99.90;;;;;;4998396;28;20540;-74
2023/04/24 02:49:43;;;;;;;4.75;1.60;;;10.80;99.90;;;;;;5001163;28;20030;-74
2023/04/24 02:52:09;;;;;;;3.17;1.70;;;10.80;99.90;;;;;;5006166;28;20434;-74
2023/04/24 02:54:34;;;;;;;2.97;1.60;;;10.80;99.90;;;;;;4998263;28;20038;-74
2023/04/24 02:57:01;;;;;;;5.35;1.90;;;10.80;99.90;;;;;;4998628;28;20109;-74
2023/04/24 02:59:28;;;;;;;1.98;1.60;;;10.80;99.90;;;;;;4998352;28;20026;-74
2023/04/24 03:01:54;;;;;;;4.88;1.73;;;10.80;99.90;;;;;;5010851;28;20706;-74
2023/04/24 03:04:20;;;;;;;3.30;1.67;;;10.80;99.90;;;;;;4994927;28;20037;-73
2023/04/24 03:06:46;;;;;;;2.65;1.60;;;10.80;99.90;;;;;;4999696;28;20478;-74
2023/04/24 03:09:11;;;;;;;4.35;1.80;;;10.70;99.90;;;;;;4997524;28;20030;-74
2023/04/24 03:11:37;;;;;;;7.18;1.65;;;10.80;99.90;;;;;;4999762;28;20026;-72
2023/04/24 03:14:02;;;;;;;4.53;2.00;;;10.70;99.90;;;;;;4994308;28;20035;-75
2023/04/24 03:16:28;;;;;;;3.33;1.88;;;10.70;99.90;;;;;;5005818;28;20514;-75
2023/04/24 03:18:53;;;;;;;3.38;2.10;;;10.80;99.90;;;;;;5000714;28;20042;-74
2023/04/24 03:21:19;;;;;;;2.50;2.25;;;10.70;99.90;;;;;;5002896;28;20076;-74
2023/04/24 03:23:45;;;;;;;5.90;2.17;;;10.70;99.90;;;;;;4995427;28;20106;-75
2023/04/24 03:26:10;;;;;;;4.10;1.80;;;10.70;99.90;;;;;;5003923;28;20026;-74
2023/04/24 03:28:36;;;;;;;6.60;2.20;;;10.70;99.90;;;;;;4996475;28;20479;-75
2023/04/24 03:31:03;;;;;;;4.40;2.10;;;10.70;99.90;;;;;;5002742;28;20060;-74
2023/04/24 03:33:28;;;;;;;2.88;2.08;;;10.70;99.90;;;;;;5004844;28;20034;-74
2023/04/24 03:35:54;;;;;;;4.40;2.17;;;10.70;99.90;;;;;;4995213;28;20563;-74
2023/04/24 03:38:20;;;;;;;2.75;1.85;;;10.70;99.90;;;;;;4993222;28;20113;-74
2023/04/24 03:40:45;;;;;;;3.58;2.30;;;10.70;99.90;;;;;;4993058;28;20646;-74
2023/04/24 03:43:11;;;;;;;4.00;1.95;;;10.70;99.90;;;;;;5002069;28;20036;-74
2023/04/24 03:45:37;;;;;;;2.90;1.85;;;10.60;99.90;;;;;;4995143;28;20092;-74
2023/04/24 03:48:02;;;;;;;4.20;2.20;;;10.60;99.90;;;;;;4991944;28;20648;-75
2023/04/24 03:50:29;;;;;;;5.13;2.50;;;10.60;99.90;;;;;;5000665;28;20033;-75
2023/04/24 03:52:54;;;;;;;3.13;2.17;;;10.50;99.90;;;;;;4995473;28;20032;-75
2023/04/24 03:55:20;;;;;;;4.15;2.10;;;10.50;99.90;;;;;;5000055;28;20025;-75
2023/04/24 03:57:46;;;;;;;3.42;2.20;;;10.50;99.90;;;;;;4990984;28;20482;-75
2023/04/24 04:00:12;;;;;;;2.88;2.30;;;10.40;99.90;;;;;;5000294;28;20060;-75
2023/04/24 04:02:37;;;;;;;3.95;2.30;;;10.40;99.90;;;;;;4997065;28;20034;-75
2023/04/24 04:05:03;;;;;;;5.50;2.38;;;10.40;99.90;;;;;;4994787;28;20032;-75
2023/04/24 04:07:29;;;;;;;3.70;2.40;;;10.40;99.90;;;;;;5001330;28;20501;-75
2023/04/24 04:09:55;;;;;;;4.15;2.40;;;10.40;99.90;;;;;;4998628;28;20037;-75
2023/04/24 04:12:20;;;;;;;3.53;2.20;;;10.40;99.90;;;;;;4996013;28;20022;-74
2023/04/24 04:14:46;;;;;;;3.67;2.30;;;10.30;99.90;;;;;;4992795;28;20030;-75
2023/04/24 04:17:12;;;;;;;3.30;1.95;;;10.30;99.90;;;;;;4991250;28;20034;-74
2023/04/24 04:19:37;;;;;;;7.13;2.35;;;10.40;99.90;;;;;;5005896;28;20542;-74
2023/04/24 04:22:03;;;;;;;3.42;2.30;;;10.30;99.90;;;;;;4992883;28;20073;-75
2023/04/24 04:24:28;;;;;;;2.88;2.17;;;10.30;99.90;;;;;;4994808;28;20385;-74
2023/04/24 04:26:57;;;;;;;3.15;2.25;;;10.30;99.90;;;;;;5000224;28;20514;-74
2023/04/24 04:29:23;;;;;;;4.63;2.10;;;10.30;99.90;;;;;;4996692;28;20509;-74
2023/04/24 04:31:49;;;;;;;4.53;2.17;;;10.30;99.90;;;;;;4996557;28;20038;-75
2023/04/24 04:34:15;;;;;;;2.55;1.95;;;10.30;99.90;;;;;;5001055;28;20038;-75
2023/04/24 04:36:41;;;;;;;4.22;1.92;;;10.30;99.90;;;;;;5001908;28;20122;-75
2023/04/24 04:39:07;;;;;;;4.82;2.10;;;10.30;99.90;;;;;;4996398;28;20048;-75
2023/04/24 04:41:34;;;;;;;3.78;2.10;;;10.30;99.90;;;;;;5000131;28;20105;-74
2023/04/24 04:44:00;;;;;;;2.72;2.08;;;10.30;99.90;;;;;;4995518;28;20056;-75
2023/04/24 04:46:26;;;;;;;3.90;2.20;;;10.30;99.90;;;;;;4996778;28;20038;-74
2023/04/24 04:48:53;;;;;;;2.30;2.00;;;10.30;99.90;;;;;;5002902;28;20026;-75
2023/04/24 04:51:19;;;;;;;5.03;2.13;;;10.30;99.90;;;;;;4997273;28;20030;-74
2023/04/24 04:53:45;;;;;;;4.15;2.20;;;10.30;99.90;;;;;;4991886;28;20585;-75
2023/04/24 04:56:10;;;;;;;3.95;2.40;;;10.20;99.90;;;;;;4995564;28;20030;-75
2023/04/24 04:58:36;;;;;;;3.20;1.92;;;10.20;99.90;;;;;;5000472;28;20022;-74
2023/04/24 05:01:02;;;;;;;3.00;2.20;;;10.20;99.90;;;;;;4997218;28;21284;-74
2023/04/24 05:03:28;;;;;;;3.55;2.20;;;10.30;99.90;;;;;;4996356;28;20117;-74
2023/04/24 05:05:53;;;;;;;4.60;2.42;;;10.30;99.90;;;;;;4994623;28;20057;-74
2023/04/24 05:08:19;;;;;;;5.00;2.38;;;10.30;99.90;;;;;;4994651;28;20030;-75
2023/04/24 05:10:45;;;;;;;2.90;2.20;;;10.30;99.90;;;;;;5004458;28;20464;-74
2023/04/24 05:13:10;;;;;;;4.93;2.50;;;10.30;99.90;;;;;;4992261;28;20029;-75
2023/04/24 05:15:36;;;;;;;4.30;2.60;;;10.30;99.90;;;;;;4988354;28;20029;-73
2023/04/24 05:18:01;;;;;;;4.07;2.30;;;10.30;99.90;;;;;;4989008;28;23020;-74
2023/04/24 05:20:27;;;;;;;2.90;2.60;;;10.30;99.90;;;;;;5002558;28;20026;-74
2023/04/24 05:22:53;;;;;;;5.75;2.60;;;10.30;99.90;;;;;;4999755;28;20556;-73
2023/04/24 05:25:18;;;;;;;3.70;2.40;;;10.30;99.90;;;;;;4996127;28;20048;-74
2023/04/24 05:27:45;;;;;;;3.25;2.40;;;10.30;99.90;;;;;;4993274;28;20058;-74
2023/04/24 05:30:12;;;;;;;3.00;2.70;;;10.20;99.90;;;;;;4998199;28;20036;-74
2023/04/24 05:32:37;;;;;;;2.70;2.28;;;10.20;99.90;;;;;;5002803;28;20371;-74
2023/04/24 05:35:03;;;;;;;2.90;2.58;;;10.30;99.90;;;;;;4994892;28;20030;-74
2023/04/24 05:37:29;;;;;;;3.40;2.92;;;10.30;99.90;;;;;;4997062;28;20060;-73
2023/04/24 05:39:55;;;;;;;7.65;2.72;;;10.20;99.90;;;;;;5004104;28;20030;-72
2023/04/24 05:42:20;;;;;;;5.40;3.58;;;10.20;99.90;;;;;;5004558;28;20104;-73
2023/04/24 05:44:46;;;;;;;6.65;3.83;;;10.10;99.90;;;;;;5001377;28;20099;-74
2023/04/24 05:47:11;;;;;;;4.93;3.42;;;10.10;99.90;;;;;;5002322;28;20034;-73
2023/04/24 05:49:37;;;;;;;4.95;3.47;;;10.00;99.90;;;;;;5008875;28;20417;-73
2023/04/24 05:52:04;;;;;;;4.75;3.65;;;10.00;99.90;;;;;;5007699;28;20632;-73
2023/04/24 05:54:29;;;;;;;3.65;3.15;;;10.00;99.90;;;;;;4996536;28;20042;-73
2023/04/24 05:56:55;;;;;;;3.88;3.42;;;10.00;99.90;;;;;;5003254;28;20033;-74
2023/04/24 05:59:21;;;;;;;5.90;3.28;;;10.00;99.90;;;;;;4995458;28;20030;-73
2023/04/24 06:01:47;;;;;;;4.70;3.53;;;10.10;99.90;;;;;;5001086;28;20313;-73
2023/04/24 06:04:15;;;;;;;5.15;3.53;;;10.10;99.90;;;;;;4998642;28;20568;-74
2023/04/24 06:06:41;;;;;;;5.43;3.90;;;10.10;99.90;;;;;;5001313;28;20493;-73
2023/04/24 06:09:07;;;;;;;5.40;3.22;;;10.20;99.90;;;;;;4994223;28;20038;-73
2023/04/24 06:11:32;;;;;;;5.50;3.50;;;10.20;99.90;;;;;;4999170;28;20030;-73
2023/04/24 06:13:58;;;;;;;4.28;2.80;;;10.30;99.90;;;;;;4999840;28;20474;-73
2023/04/24 06:16:23;;;;;;;2.92;2.65;;;10.30;99.90;;;;;;4999097;28;20022;-73
2023/04/24 06:18:50;;;;;;;4.82;2.53;;;10.40;99.90;;;;;;4999741;28;20069;-73
2023/04/24 06:21:16;;;;;;;3.35;2.70;;;10.50;99.90;;;;;;5003431;28;20506;-74
2023/04/24 06:23:42;;;;;;;3.65;2.30;;;10.70;99.90;;;;;;5008977;28;20026;-73
2023/04/24 06:26:07;;;;;;;8.73;2.30;;;10.90;99.90;;;;;;5009192;28;20092;-74
2023/04/24 06:28:33;;;;;;;3.53;2.42;;;11.10;99.90;;;;;;4994242;28;20025;-74
2023/04/24 06:30:58;;;;;;;2.63;2.30;;;11.30;99.90;;;;;;5003789;28;20382;-74
2023/04/24 06:33:24;;;;;;;4.15;3.17;;;11.40;99.90;;;;;;5002677;28;20088;-74
2023/04/24 06:35:49;;;;;;;3.50;2.55;;;11.50;99.90;;;;;;5000428;28;20110;-74
2023/04/24 06:38:15;;;;;;;3.35;2.90;;;11.70;99.90;;;;;;5010005;28;20033;-74
2023/04/24 06:40:41;;;;;;;5.00;2.80;;;11.70;99.90;;;;;;5005699;28;20034;-74
2023/04/24 06:43:07;;;;;;;2.88;2.50;;;11.80;99.90;;;;;;5000942;28;20487;-74
2023/04/24 06:45:33;;;;;;;3.90;2.63;;;11.80;99.90;;;;;;5001810;28;20053;-75
2023/04/24 06:47:58;;;;;;;3.92;3.20;;;11.80;99.90;;;;;;5000435;28;20033;-75
2023/04/24 06:50:24;;;;;;;2.75;2.28;;;11.90;99.90;;;;;;4999608;28;20037;-74
2023/04/24 06:52:49;;;;;;;5.22;2.70;;;11.80;99.90;;;;;;5000700;28;20037;-74
2023/04/24 06:55:16;;;;;;;3.75;3.05;;;11.80;99.90;;;;;;5006449;28;20038;-74
2023/04/24 06:57:42;;;;;;;5.95;3.17;;;11.60;99.90;;;;;;5002341;28;20037;-75
2023/04/24 07:00:09;;;;;;;5.68;3.50;;;11.60;99.90;;;;;;4999848;28;20030;-74
2023/04/24 07:02:34;;;;;;;5.25;3.08;;;11.40;99.90;;;;;;5005801;28;20037;-74
2023/04/24 07:05:01;;;;;;;4.22;3.42;;;11.40;99.90;;;;;;5000200;28;20018;-74
2023/04/24 07:07:27;;;;;;;4.40;4.00;;;11.20;99.90;;;;;;5004738;28;20040;-74
2023/04/24 07:09:53;;;;;;;4.57;3.83;;;11.30;99.90;;;;;;5001244;28;20033;-74
2023/04/24 07:12:21;;;;;;;6.35;4.25;;;11.40;99.90;;;;;;5000685;28;20069;-74
2023/04/24 07:14:47;;;;;;;5.15;4.00;;;11.50;99.90;;;;;;5001351;28;20101;-74
2023/04/24 07:17:13;;;;;;;5.55;4.07;;;11.50;99.90;;;;;;4996995;28;20121;-73
2023/04/24 07:19:39;;;;;;;5.80;3.92;;;11.40;99.90;;;;;;4999782;28;20033;-72
2023/04/24 07:22:04;;;;;;;4.93;4.03;;;11.20;99.90;;;;;;5000554;28;20156;-73
2023/04/24 07:24:32;;;;;;;7.50;4.07;;;11.10;99.90;;;;;;5002702;28;20398;-73
2023/04/24 07:26:59;;;;;;;5.68;4.20;;;11.00;99.90;;;;;;4997254;28;20033;-72
2023/04/24 07:29:25;;;;;;;5.05;4.38;;;;;;;;;;5005104;28;20486;-73
2023/04/24 07:31:50;;;;;;;6.43;4.00;;;11.50;99.90;;;;;;5004933;28;20080;-73
2023/04/24 07:34:16;;;;;;;4.22;3.70;;;11.50;99.90;;;;;;4998519;28;20062;-73
2023/04/24 07:36:42;;;;;;;4.75;3.65;;;11.70;99.90;;;;;;4994708;28;20026;-73
2023/04/24 07:39:08;;;;;;;6.47;3.97;;;11.90;99.90;;;;;;5004135;28;20025;-73
2023/04/24 07:41:34;;;;;;;5.68;4.05;;;12.10;99.90;;;;;;5003717;28;20149;-73
2023/04/24 07:44:00;;;;;;;4.75;3.50;;;12.40;99.90;;;;;;4999170;28;20034;-73
2023/04/24 07:46:26;;;;;;;4.53;3.53;;;12.50;99.90;;;;;;4994831;28;20085;-74
2023/04/24 07:48:51;;;;;;;4.43;4.03;;;12.60;99.90;;;;;;5003802;28;20032;-72
2023/04/24 07:51:17;;;;;;;6.88;4.35;;;12.60;99.90;;;;;;5002087;28;20022;-75
2023/04/24 07:53:43;;;;;;;4.78;3.53;;;12.40;99.90;;;;;;4999123;28;20027;-73
2023/04/24 07:56:09;;;;;;;5.35;3.47;;;12.10;99.90;;;;;;4996900;28;20039;-74
2023/04/24 07:58:35;;;;;;;4.22;3.65;;;11.90;99.90;;;;;;4997450;28;20041;-73
2023/04/24 08:01:00;;;;;;;7.13;3.97;;;11.80;99.90;;;;;;5004287;28;20386;-73
2023/04/24 08:03:26;;;;;;;4.53;3.47;;;11.80;99.90;;;;;;5000304;28;20474;-74
2023/04/24 08:05:52;;;;;;;4.22;3.55;;;11.80;99.90;;;;;;5004030;28;20030;-73
2023/04/24 08:08:19;;;;;;;5.60;3.47;;;12.00;99.90;;;;;;5006342;28;20065;-73
2023/04/24 08:10:45;;;;;;;4.68;3.80;;;12.20;99.90;;;;;;4998923;28;20053;-73
2023/04/24 08:13:11;;;;;;;4.22;3.63;;;12.30;99.90;;;;;;5001213;28;20030;-73
2023/04/24 08:15:37;;;;;;;6.68;4.22;;;12.40;99.90;;;;;;4999180;28;20032;-73
2023/04/24 08:18:02;;;;;;;4.88;4.05;;;12.50;99.90;;;;;;5001461;28;20447;-73
2023/04/24 08:20:28;;;;;;;6.45;4.07;;;12.60;99.90;;;;;;5006836;28;20030;-72
2023/04/24 08:22:54;;;;;;;4.78;3.80;;;12.90;99.90;;;;;;5002029;28;20034;-73
2023/04/24 08:25:20;;;;;;;3.70;3.40;;;13.00;99.90;;;;;;4998018;28;20058;-74
2023/04/24 08:27:45;;;;;;;7.60;3.72;;;13.00;99.90;;;;;;5003033;28;20060;-73
2023/04/24 08:30:11;;;;;;;7.97;3.65;;;13.00;99.90;;;;;;4996350;28;20030;-74
2023/04/24 08:32:37;;;;;;;5.95;3.65;;;13.00;99.90;;;;;;5002609;28;20128;-73
2023/04/24 08:35:03;;;;;;;4.68;3.63;;;12.90;99.90;;;;;;4994485;28;20042;-73
2023/04/24 08:37:29;;;;;;;3.90;3.50;;;12.80;99.90;;;;;;4994409;28;20042;-73
2023/04/24 08:39:55;;;;;;;6.13;3.70;;;13.20;99.90;;;;;;5002804;28;20032;-73
2023/04/24 08:42:21;;;;;;;6.45;3.63;;;13.20;99.90;;;;;;5007637;28;20022;-73
2023/04/24 08:44:48;;;;;;;4.45;3.42;;;13.20;99.90;;;;;;5000792;28;20398;-73
2023/04/24 08:47:15;;;;;;;4.50;3.20;;;13.30;99.90;;;;;;5001907;28;20042;-72
2023/04/24 08:49:42;;;;;;;3.30;3.00;;;13.40;99.90;;;;;;4999907;28;20117;-74
2023/04/24 08:52:08;;;;;;;3.88;3.28;;;13.30;99.90;;;;;;5001127;28;20034;-73
2023/04/24 08:54:35;;;;;;;4.57;3.90;;;13.10;99.90;;;;;;5001512;28;20635;-73
2023/04/24 08:57:03;;;;;;;4.28;3.53;;;12.90;99.90;;;;;;5002394;28;20077;-73
2023/04/24 08:59:30;;;;;;;5.55;4.10;;;12.60;99.90;;;;;;4998825;28;20036;-74
2023/04/24 09:01:56;;;;;;;6.47;4.28;;;12.40;99.90;;;;;;4994430;28;20045;-73
2023/04/24 09:04:24;;;;;;;10.00;3.90;;;12.30;99.90;;;;;;4991975;28;20041;-73
2023/04/24 09:06:55;;;;;;;9.27;4.63;;;12.10;99.90;;;;;;4992890;28;20788;-73
2023/04/24 09:09:22;;;;;;;4.60;4.10;;;12.00;99.90;;;;;;4993224;28;20041;-74
2023/04/24 09:11:49;;;;;;;9.60;4.47;;;11.80;99.90;;;;;;4989183;28;20034;-73
2023/04/24 09:14:16;;;;;;;5.18;4.68;;;11.70;99.90;;;;;;4997928;28;20509;-73
2023/04/24 09:16:42;;;;;;;6.60;4.90;;;11.60;99.90;;;;;;4999270;28;20068;-73
2023/04/24 09:19:08;;;;;;;7.40;5.55;;;11.50;99.90;;;;;;4997500;28;20053;-73
2023/04/24 09:21:35;;;;;;;10.07;5.72;;;11.40;99.90;;;;;;4998386;28;20061;-73
2023/04/24 09:24:03;;;;;;;5.43;4.43;;;11.40;99.90;;;;;;4993551;28;20038;-74
2023/04/24 09:26:35;;;;;;;8.02;4.60;;;11.50;99.90;;;;;;4995902;28;20189;-74
2023/04/24 09:29:01;;;;;;;5.35;4.38;;;11.60;99.90;;;;;;4991895;28;20509;-74
2023/04/24 09:31:29;;;;;;;5.05;4.55;;;11.70;99.90;;;;;;4992545;28;20034;-76
2023/04/24 09:34:00;;;;;;;3.97;3.55;;;11.60;99.90;;;;;;4996233;28;20065;-76
2023/04/24 09:36:32;;;;;;;5.95;4.30;;;11.50;99.90;;;;;;4998084;28;20034;-76
2023/04/24 09:38:59;;;;;;;6.43;4.53;;;11.40;99.90;;;;;;5001769;28;20119;-76
2023/04/24 09:41:25;;;;;;;4.75;4.28;;;11.30;99.90;;;;;;4993605;28;20018;-75
2023/04/24 09:43:53;;;;;;;6.60;4.57;;;11.30;99.90;;;;;;5003303;28;20545;-75
2023/04/24 09:46:21;;;;;;;5.18;4.68;;;11.20;99.90;;;;;;4998159;28;20609;-75
2023/04/24 09:48:46;;;;;;;5.78;4.00;;;11.20;99.90;;;;;;5000843;28;20068;-75
2023/04/24 09:51:12;;;;;;;4.38;3.45;;;11.10;99.90;;;;;;4998476;28;20485;-75
2023/04/24 09:53:41;;;;;;;3.70;3.28;;;11.10;99.90;;;;;;5001629;28;20037;-75
2023/04/24 09:56:08;;;;;;;3.00;2.70;;;11.10;99.90;;;;;;5001617;28;20030;-75
2023/04/24 09:58:37;;;;;;;3.42;2.50;;;11.20;99.90;;;;;;5004543;28;20017;-75
2023/04/24 10:01:03;;;;;;;3.88;3.50;;;11.20;99.90;;;;;;4991428;28;20574;-74
2023/04/24 10:03:33;;;;;;;2.97;2.60;;;11.40;99.90;;;;;;4987657;28;20088;-75
2023/04/24 10:06:00;;;;;;;4.90;2.47;;;11.40;99.90;;;;;;4997115;28;20053;-75
2023/04/24 10:08:26;;;;;;;4.50;2.30;;;;;;;;;;4992505;28;20046;-74
2023/04/24 10:10:52;;;;;;;7.05;3.08;;;11.50;99.90;;;;;;4999375;28;20492;-75
2023/04/24 10:13:18;;;;;;;5.75;2.65;;;11.60;99.90;;;;;;4991034;28;20255;-75
2023/04/24 10:15:44;;;;;;;2.95;2.20;;;11.60;99.90;;;;;;4989228;28;20134;-75
2023/04/24 10:18:10;;;;;;;3.13;2.13;;;11.70;99.90;;;;;;4993570;28;20503;-75
2023/04/24 10:20:39;;;;;;;2.00;1.90;;;11.70;99.90;;;;;;4994926;28;20034;-74
2023/04/24 10:23:05;;;;;;;2.85;2.05;;;11.70;99.90;;;;;;4997712;28;20101;-75
2023/04/24 10:25:32;;;;;;;3.72;2.45;;;11.70;99.90;;;;;;5000595;28;20033;-75
2023/04/24 10:28:00;;;;;;;2.92;1.83;;;11.70;99.90;;;;;;4991619;28;20038;-74
2023/04/24 10:30:35;;;;;;;2.30;2.10;;;11.70;99.90;;;;;;4995962;28;20037;-74
2023/04/24 10:33:06;;;;;;;2.40;2.00;;;11.70;99.90;;;;;;4991143;28;20145;-74
2023/04/24 10:35:39;;;;;;;3.65;2.55;;;11.70;99.90;;;;;;4993036;28;20041;-73
2023/04/24 10:38:11;;;;;;;5.65;2.40;;;11.50;99.90;;;;;;5001622;28;20117;-74
2023/04/24 10:40:37;;;;;;;6.18;2.40;;;11.40;99.90;;;;;;4994575;28;20137;-74
2023/04/24 10:43:09;;;;;;;3.67;3.15;;;11.30;99.90;;;;;;4996186;28;20542;-75
2023/04/24 10:45:35;;;;;;;5.88;3.15;;;11.20;99.90;;;;;;4996284;28;20042;-76
2023/04/24 10:48:03;;;;;;;5.15;3.25;;;11.10;99.90;;;;;;4993971;28;20561;-75
2023/04/24 10:50:42;;;;;;;4.18;3.78;;;11.00;99.90;;;;;;5003419;28;20034;-75
2023/04/24 10:53:14;;;;;;;3.67;3.28;;;11.00;99.90;;;;;;4995077;28;20785;-74
2023/04/24 10:56:06;;;;;;;3.67;3.37;;;11.00;99.90;;;;;;4998384;28;20033;-74
2023/04/24 10:58:53;;;;;;;7.15;3.30;;;10.90;99.90;;;;;;4998022;28;20113;-75
2023/04/24 11:01:28;;;;;;;4.43;2.83;;;10.80;99.90;;;;;;4995733;28;20386;-74
2023/04/24 11:03:59;;;;;;;3.53;3.22;;;10.50;99.90;;;;;;4991689;28;20115;-74
2023/04/24 11:06:52;;;;;;;3.20;2.80;;;10.40;99.90;;;;;;4993733;28;20445;-72
2023/04/24 11:09:20;;;;;;;4.38;2.00;;;10.40;99.90;;;;;;5000833;28;20033;-75
2023/04/24 11:11:47;;;;;;;2.97;1.67;;;10.30;99.90;;;;;;5002184;28;20029;-74
2023/04/24 11:14:16;;;;;;;1.65;1.10;;;10.30;99.90;;;;;;4997566;28;20030;-74
2023/04/24 11:16:44;;;;;;;1.20;1.10;;;10.40;99.90;;;;;;5002520;28;20147;-74
2023/04/24 11:19:16;;;;;;;1.38;1.13;;;10.60;99.90;;;;;;5000945;28;20057;-75
2023/04/24 11:21:53;;;;;;;1.33;0.80;;;10.70;99.90;;;;;;4995973;28;20133;-75
2023/04/24 11:24:37;;;;;;;1.95;0.90;;;10.80;99.90;;;;;;4997338;28;20484;-74
2023/04/24 11:27:03;;;;;;;0.50;0.50;;;10.90;99.90;;;;;;4996535;28;20449;-74
2023/04/24 11:29:44;;;;;;;1.50;0.30;;;10.80;99.90;;;;;;5000524;28;20041;-74
2023/04/24 11:32:27;;;;;;;2.28;0.60;;;10.60;99.90;;;;;;4997632;28;20207;-73
2023/04/24 11:35:01;;;;;;;2.72;0.80;;;10.20;99.90;;;;;;4995324;28;20117;-73
2023/04/24 11:37:36;;;;;;;1.30;0.45;;;10.20;99.90;;;;;;4997488;28;20169;-74
2023/04/24 11:40:03;;;;;;;0.40;0.40;;;10.30;99.90;;;;;;4997014;28;20030;-74
2023/04/24 11:42:39;;;;;;;5.40;1.10;;;10.30;99.90;;;;;;4996283;28;20046;-74
2023/04/24 11:45:16;;;;;;;0.45;0.40;;;10.20;99.90;;;;;;4995191;28;20468;-74
2023/04/24 11:47:43;;;;;;;4.13;0.50;;;10.20;99.90;;;;;;5004096;28;20066;-74
2023/04/24 11:50:19;;;;;;;0.80;0.60;;;10.20;99.90;;;;;;4996679;28;20064;-73
2023/04/24 11:52:47;;;;;;;1.60;1.00;;;10.10;99.90;;;;;;5004009;28;20057;-73
2023/04/24 11:55:15;;;;;;;1.30;0.68;;;10.10;99.90;;;;;;4997102;28;20065;-73
2023/04/24 11:57:46;;;;;;;2.75;0.30;;;10.20;99.90;;;;;;4995458;28;20022;-73
2023/04/24 12:00:20;;;;;;;0.25;0.22;;;10.20;99.90;;;;;;4998640;28;20091;-72
2023/04/24 12:02:46;;;;;;;0.68;0.30;;;;;;;;;;4993522;28;20081;-73
2023/04/24 12:05:22;;;;;;;0.40;0.20;;;;;;;;;;4993273;28;21560;-72
2023/04/24 12:07:48;;;;;;;0.32;0.30;;;10.10;99.90;;;;;;4991661;28;20641;-73
2023/04/24 12:10:14;;;;;;;0.20;0.20;;;;;;;;;;4997180;28;20121;-72
2023/04/24 12:12:40;;;;;;;0.68;0.30;;;10.10;99.90;;;;;;4999982;28;20478;-72
2023/04/24 12:15:09;;;;;;;0.93;0.60;;;10.10;99.90;;;;;;4988161;28;20022;-72
2023/04/24 12:17:38;;;;;;;0.30;0.30;;;10.10;99.90;;;;;;4996452;28;20034;-72
2023/04/24 12:20:06;;;;;;;0.30;0.30;;;10.20;99.90;;;;;;4999284;28;20027;-72
2023/04/24 12:22:54;;;;;;;0.50;0.40;;;10.20;99.90;;;;;;5004419;28;20033;-72
2023/04/24 12:25:22;;;;;;;1.95;0.38;;;10.40;99.90;;;;;;4992285;28;20045;-72
2023/04/24 12:27:55;;;;;;;3.97;0.50;;;10.40;99.90;;;;;;5002003;28;20030;-72
2023/04/24 12:30:21;;;;;;;0.88;0.50;;;10.40;99.90;;;;;;4996534;28;20038;-73
2023/04/24 12:32:49;;;;;;;0.65;0.50;;;10.60;99.90;;;;;;5000493;28;20034;-74
2023/04/24 12:35:23;;;;;;;0.40;0.40;;;10.60;99.90;;;;;;4995514;28;20037;-76
2023/04/24 12:37:50;;;;;;;1.75;0.45;;;10.50;99.90;;;;;;4646846;28;9999864;-75
2023/04/24 12:40:19;;;;;;;0.60;0.60;;;10.50;99.90;;;;;;4987205;28;20030;-76
2023/04/24 12:42:46;;;;;;;0.65;0.65;;;10.50;99.90;;;;;;4997676;28;20033;-75
2023/04/24 12:45:13;;;;;;;3.13;0.73;;;10.40;99.90;;;;;;4995965;28;20041;-74
2023/04/24 12:47:40;;;;;;;0.82;0.60;;;10.40;99.90;;;;;;5001343;28;20111;-75